Flight Track Log - Related Links

Times and Time Zones

All times are in EDT time to prevent confusion due to time zone crossing. See the SKW6223 flight status page for this flight to view local times or setup timezone preferences in your user account.

Time Position Orientation Groundspeed Altitude Reporting Facility
EDT Latitude Longitude Course Direction KTS MPH feet Rate Location/Type
Wed 11:43:55 AM 39.8333 -104.7833 251° West 216 249 7,300  Level Denver TRACON
Wed 11:45:01 AM 39.8000 -104.8833 247° West 267 307 9,300 1,577 Climbing Denver TRACON
Wed 11:46:00 AM 39.6679 -105.2296 247° West  Level FlightAware
Wed 11:46:12 AM 39.7719 -105.0036 253° West 296 341 10,900  Level Denver Center
Wed 11:47:00 AM 39.6285 -105.3727 244° Southwest  Level FlightAware
Wed 11:47:14 AM 39.7378 -105.1067 247° West 311 358 12,800  Level Denver Center
Wed 11:48:00 AM 39.5760 -105.5091 244° Southwest  Level FlightAware
Wed 11:48:16 AM 39.6981 -105.2189 245° Southwest 320 368 14,600  Level Denver Center
Wed 11:49:00 AM 39.5307 -105.6431 251° West  Level FlightAware
Wed 11:49:17 AM 39.6689 -105.3000 245° Southwest 324 373 15,800  Level Denver Center
Wed 11:50:19 AM 39.6281 -105.4172 246° West 332 382 17,500 1,392 Climbing Denver Center
Wed 11:51:22 AM 39.5794 -105.5503 245° Southwest 334 384 18,700 1,152 Climbing Denver Center
Wed 11:52:24 AM 39.5400 -105.6608 245° Southwest 339 390 19,900 1,113 Climbing Denver Center
Wed 11:53:26 AM 39.5053 -105.7906 251° West 354 407 21,000 1,016 Climbing Denver Center
Wed 11:54:28 AM 39.4717 -105.9189 251° West 351 404 22,000 919 Climbing Denver Center
Wed 11:55:30 AM 39.4358 -106.0422 249° West 365 420 22,900 919 Climbing Denver Center
Wed 11:56:32 AM 39.3975 -106.1764 250° West 372 428 23,900 871 Climbing Denver Center
Wed 11:57:34 AM 39.3631 -106.2981 250° West 375 432 24,700 726 Climbing Denver Center
Wed 11:58:36 AM 39.3217 -106.4417 250° West 381 438 25,400 629 Climbing Denver Center
Wed 11:59:38 AM 39.2853 -106.5683 250° West 391 450 26,000 529 Climbing Denver Center
Wed 12:00:52 PM 39.2506 -106.6950 251° West 392 451 26,600 613 Climbing Denver Center
Wed 12:01:55 PM 39.1692 -106.8483 236° Southwest 404 465 27,400 672 Climbing Denver Center
Wed 12:02:57 PM 39.0944 -106.9789 234° Southwest 406 467 28,000 532 Climbing Denver Center
Wed 12:03:59 PM 39.0303 -107.0911 234° Southwest 407 468 28,500 581 Climbing Denver Center
Wed 12:05:01 PM 38.9533 -107.2250 234° Southwest 413 475 29,200 484 Climbing Denver Center
Wed 12:06:03 PM 38.8875 -107.3381 233° Southwest 413 475 29,500 339 Climbing Denver Center
Wed 12:07:05 PM 38.8225 -107.4531 234° Southwest 414 476 29,900 387 Climbing Denver Center
Wed 12:08:07 PM 38.7436 -107.5875 233° Southwest 420 483 30,300 339 Climbing Denver Center
Wed 12:09:09 PM 38.6747 -107.7058 233° Southwest 428 493 30,600 339 Climbing Denver Center
Wed 12:10:11 PM 38.5947 -107.8436 233° Southwest 431 496 31,000 387 Climbing Denver Center
Wed 12:11:13 PM 38.5256 -107.9625 233° Southwest 433 498 31,400 387 Climbing Denver Center
Wed 12:12:15 PM 38.4439 -108.1006 233° Southwest 437 503 31,800 288 Climbing Denver Center
Wed 12:13:18 PM 38.3739 -108.2203 233° Southwest 438 504 32,000 96 Climbing Denver Center
Wed 12:14:20 PM 38.2925 -108.3558 233° Southwest 432 497 32,000  Level Denver Center
Wed 12:15:22 PM 38.2222 -108.4739 233° Southwest 433 498 32,000  Level Denver Center
Wed 12:16:36 PM 38.1408 -108.6122 233° Southwest 435 501 32,000  Level Denver Center
Wed 12:17:38 PM 38.0569 -108.7519 233° Southwest 433 498 32,000  Level Denver Center
Wed 12:18:40 PM 37.9758 -108.8856 232° Southwest 429 494 32,000  Level Denver Center
Wed 12:19:42 PM 37.9056 -108.9978 232° Southwest 428 493 32,000  Level Denver Center
Wed 12:20:44 PM 37.8242 -109.1319 233° Southwest 430 495 32,000  Level Denver Center
Wed 12:21:46 PM 37.7556 -109.2472 233° Southwest 429 494 32,000  Level Denver Center
Wed 12:22:49 PM 37.6728 -109.3811 232° Southwest 433 498 32,000  Level Denver Center
Wed 12:23:51 PM 37.6028 -109.4958 232° Southwest 434 499 32,000  Level Denver Center
Wed 12:24:53 PM 37.5328 -109.6081 232° Southwest 431 496 32,000  Level Denver Center
Wed 12:25:55 PM 37.4511 -109.7406 232° Southwest 430 495 32,000  Level Denver Center
Wed 12:26:57 PM 37.3811 -109.8531 232° Southwest 428 493 32,000  Level Denver Center
Wed 12:27:59 PM 37.3003 -109.9836 232° Southwest 426 490 32,000  Level Denver Center
Wed 12:29:01 PM 37.2294 -110.0953 231° Southwest 426 490 32,000  Level Denver Center
Wed 12:30:03 PM 37.1553 -110.2128 232° Southwest 428 493 32,000  Level Denver Center
Wed 12:31:05 PM 37.0672 -110.3528 232° Southwest 428 493 32,000  Level Denver Center
Wed 12:32:07 PM 36.9939 -110.4686 232° Southwest 427 491 32,000  Level Denver Center
Wed 12:33:09 PM 36.9197 -110.5872 232° Southwest 430 495 32,000  Level Denver Center
Wed 12:34:11 PM 36.8556 -110.7106 237° Southwest 428 493 32,000  Level Denver Center
Wed 12:35:13 PM 36.7922 -110.8317 237° Southwest 419 482 32,000  Level Denver Center
Wed 12:36:15 PM 36.7278 -110.9553 237° Southwest 423 487 32,000  Level Denver Center
Wed 12:37:17 PM 36.6486 -111.1017 236° Southwest 425 489 32,000  Level Denver Center
Wed 12:38:20 PM 36.5842 -111.2225 236° Southwest 421 484 32,000  Level Denver Center
Wed 12:39:22 PM 36.5178 -111.3444 236° Southwest 423 487 32,000  Level Denver Center
Wed 12:40:24 PM 36.4542 -111.4656 237° Southwest 421 484 32,000  Level Denver Center
Wed 12:41:26 PM 36.3897 -111.5867 237° Southwest 420 483 32,000  Level Denver Center
Wed 12:42:28 PM 36.3247 -111.7061 236° Southwest 419 482 32,000  Level Denver Center
Wed 12:43:30 PM 36.2600 -111.8253 236° Southwest 417 480 32,000  Level Denver Center
Wed 12:44:32 PM 36.1822 -111.9689 236° Southwest 418 481 32,000  Level Denver Center
Wed 12:45:34 PM 36.1175 -112.0878 236° Southwest 416 479 32,000  Level Denver Center
Wed 12:46:36 PM 36.0519 -112.2075 236° Southwest 418 481 32,000  Level Denver Center
Wed 12:47:38 PM 35.9864 -112.3256 236° Southwest 417 480 32,000  Level Denver Center
Wed 12:49:00 PM 35.8936 -112.4911 235° Southwest 416 479 32,000  Level Los Center
Wed 12:50:02 PM 35.8300 -112.6100 237° Southwest 418 481 32,000  Level Los Center
Wed 12:51:04 PM 35.7650 -112.7269 236° Southwest 418 481 32,000  Level Los Center
Wed 12:52:06 PM 35.7014 -112.8425 236° Southwest 416 479 32,000  Level Los Center
Wed 12:53:08 PM 35.6206 -112.9847 235° Southwest 416 479 32,000  Level Los Center
Wed 12:54:11 PM 35.5556 -113.1025 236° Southwest 416 479 32,000  Level Los Center
Wed 12:55:13 PM 35.4889 -113.2189 235° Southwest 416 479 32,000  Level Los Center
Wed 12:56:15 PM 35.4164 -113.3464 235° Southwest 415 478 32,000  Level Los Center
Wed 12:57:17 PM 35.3508 -113.4603 235° Southwest 413 475 32,000  Level Los Center
Wed 12:58:19 PM 35.2867 -113.5739 235° Southwest 412 474 32,000  Level Los Center
Wed 12:59:21 PM 35.2531 -113.7031 252° West 406 467 32,000  Level Los Center
Wed 01:00:23 PM 35.2558 -113.8425 271° West 411 473 32,000  Level Los Center
Wed 01:01:25 PM 35.2564 -114.0014 270° West 409 471 32,000 -97 Level Los Center
Wed 01:02:27 PM 35.2131 -114.1264 247° West 404 465 31,800 -576 Descending Los Center
Wed 01:03:30 PM 35.1278 -114.2136 220° Southwest 396 456 30,800 -864 Descending Los Center
Wed 01:04:32 PM 35.0289 -114.2858 211° Southwest 408 470 30,000 -387 Descending Los Center
Wed 01:05:34 PM 34.9103 -114.3689 210° Southwest 408 470 30,000  Level Los Center
Wed 01:06:36 PM 34.8119 -114.4406 211° Southwest 409 471 30,000  Level Los Center
Wed 01:07:38 PM 34.7222 -114.5211 216° Southwest 403 464 30,000  Level Los Center
Wed 01:08:40 PM 34.6456 -114.6122 224° Southwest 407 468 30,000  Level Los Center
Wed 01:09:42 PM 34.5636 -114.7044 223° Southwest 403 464 30,000 -576 Level Los Center
Wed 01:10:45 PM 34.4647 -114.8161 223° Southwest 404 465 28,800 -960 Descending Los Center
Wed 01:11:47 PM 34.3811 -114.9111 223° Southwest 411 473 28,000 -387 Descending Los Center
Wed 01:12:49 PM 34.2986 -115.0042 223° Southwest 407 468 28,000  Level Los Center
Wed 01:13:51 PM 34.2192 -115.0944 223° Southwest 397 457 28,000  Level Los Center
Wed 01:14:53 PM 34.1400 -115.1844 223° Southwest 393 452 28,000  Level Los Center
Wed 01:15:55 PM 34.0450 -115.2894 222° Southwest 388 447 28,000  Level Los Center
Wed 01:16:57 PM 33.9667 -115.3769 223° Southwest 385 443 28,000 -242 Level Los Center
Wed 01:17:59 PM 33.8878 -115.4650 223° Southwest 384 442 27,500 -774 Descending Los Center
Wed 01:19:01 PM 33.8078 -115.5531 222° Southwest 389 448 26,400 -1,016 Descending Los Center
Wed 01:20:03 PM 33.7269 -115.6444 223° Southwest 398 458 25,400 -960 Descending Los Center
Wed 01:21:06 PM 33.6461 -115.7333 222° Southwest 397 457 24,400 -672 Descending Los Center
Wed 01:22:08 PM 33.5667 -115.8564 232° Southwest 390 449 24,000 -194 Descending Los Center
Wed 01:23:10 PM 33.4928 -115.9364 222° Southwest 365 420 24,000  Level Los Center
Wed 01:24:12 PM 33.4186 -116.0150 222° Southwest 356 410 24,000 -532 Level Los Center
Wed 01:25:14 PM 33.3431 -116.0936 221° Southwest 359 413 22,900 -1,887 Descending Los Center
Wed 01:26:16 PM 33.2581 -116.1817 221° Southwest 403 464 20,100 -2,855 Descending Los Center
Wed 01:27:18 PM 33.1619 -116.2819 221° Southwest 387 445 17,000 -2,806 Descending Los Center
Wed 01:28:20 PM 33.0842 -116.3625 221° Southwest 377 434 14,300 -2,419 Descending Los Center
Wed 01:29:22 PM 33.0042 -116.4422 220° Southwest 358 412 12,000 -1,440 Descending Los Center
Wed 01:30:25 PM 32.9156 -116.4947 206° Southwest 357 411 11,300 -912 Descending Los Center
Wed 01:31:27 PM 32.8350 -116.5542 212° Southwest 321 369 10,100 -1,113 Descending Los Center
Wed 01:32:29 PM 32.7947 -116.6344 239° Southwest 289 333 9,000 -1,016 Descending Los Center
Wed 01:33:31 PM 32.7561 -116.7150 240° Southwest 284 327 8,000 -968 Descending Los Center
Wed 01:34:33 PM 32.7244 -116.7814 240° Southwest 247 284 7,000 -1,258 Descending Los Center
Wed 01:35:35 PM 32.6956 -116.8494 243° Southwest 233 268 5,400 -1,274 Descending Los Center
Wed 01:36:26 PM 32.6833 -116.9333 260° West 232 267 4,600 -941 Descending Southern TRACON

Login

Don't have an account? Register now (free) for customized features, flight alerts, and more!